sensor_id;sensor_type;location;lat;lon;timestamp;pressure;altitude;pressure_sealevel;temperature;humidity
79709;BME280;69203;48.964;9.118;2023-12-14T00:00:24;97646.72;;;5.72;100.00
79709;BME280;69203;48.964;9.118;2023-12-14T00:01:24;97645.81;;;5.73;100.00
79709;BME280;69203;48.964;9.118;2023-12-14T00:02:24;97650.38;;;5.82;100.00
79709;BME280;69203;48.964;9.118;2023-12-14T00:03:24;97647.78;;;5.82;100.00
79709;BME280;69203;48.964;9.118;2023-12-14T00:04:25;97646.22;;;5.79;100.00
79709;BME280;69203;48.964;9.118;2023-12-14T00:05:25;97642.19;;;5.75;100.00
79709;BME280;69203;48.964;9.118;2023-12-14T00:06:25;97642.47;;;5.83;100.00
79709;BME280;69203;48.964;9.118;2023-12-14T00:07:25;97638.75;;;5.87;100.00
79709;BME280;69203;48.964;9.118;2023-12-14T00:08:26;97639.41;;;5.91;100.00
79709;BME280;69203;48.964;9.118;2023-12-14T00:09:26;97634.19;;;5.91;100.00
79709;BME280;69203;48.964;9.118;2023-12-14T00:10:27;97629.78;;;6.04;100.00
79709;BME280;69203;48.964;9.118;2023-12-14T00:11:27;97631.47;;;6.05;100.00
79709;BME280;69203;48.964;9.118;2023-12-14T00:12:27;97627.50;;;6.00;100.00
79709;BME280;69203;48.964;9.118;2023-12-14T00:13:27;97624.25;;;6.09;100.00
79709;BME280;69203;48.964;9.118;2023-12-14T00:14:27;97625.41;;;6.05;100.00
79709;BME280;69203;48.964;9.118;2023-12-14T00:15:28;97631.03;;;5.99;100.00
79709;BME280;69203;48.964;9.118;2023-12-14T00:16:28;97632.31;;;6.06;100.00
79709;BME280;69203;48.964;9.118;2023-12-14T00:17:28;97625.22;;;6.08;100.00
79709;BME280;69203;48.964;9.118;2023-12-14T00:18:28;97622.91;;;6.03;100.00
79709;BME280;69203;48.964;9.118;2023-12-14T00:19:29;97625.50;;;6.16;100.00
79709;BME280;69203;48.964;9.118;2023-12-14T00:20:29;97624.16;;;6.10;100.00
79709;BME280;69203;48.964;9.118;2023-12-14T00:21:29;97618.53;;;6.04;100.00
79709;BME280;69203;48.964;9.118;2023-12-14T00:22:29;97631.97;;;5.98;100.00
79709;BME280;69203;48.964;9.118;2023-12-14T00:23:30;97631.28;;;5.96;100.00
79709;BME280;69203;48.964;9.118;2023-12-14T00:24:30;97634.91;;;5.93;100.00
79709;BME280;69203;48.964;9.118;2023-12-14T00:25:30;97632.63;;;6.01;100.00
79709;BME280;69203;48.964;9.118;2023-12-14T00:26:30;97632.63;;;6.01;100.00
79709;BME280;69203;48.964;9.118;2023-12-14T00:27:30;97634.28;;;6.02;100.00
79709;BME280;69203;48.964;9.118;2023-12-14T00:28:31;97635.13;;;6.03;100.00
79709;BME280;69203;48.964;9.118;2023-12-14T00:29:31;97636.16;;;6.00;100.00
79709;BME280;69203;48.964;9.118;2023-12-14T00:30:31;97633.13;;;5.93;100.00
79709;BME280;69203;48.964;9.118;2023-12-14T00:31:32;97641.34;;;5.87;100.00
79709;BME280;69203;48.964;9.118;2023-12-14T00:32:32;97637.19;;;5.98;100.00
79709;BME280;69203;48.964;9.118;2023-12-14T00:33:32;97646.66;;;5.86;100.00
79709;BME280;69203;48.964;9.118;2023-12-14T00:34:32;97633.34;;;5.90;100.00
79709;BME280;69203;48.964;9.118;2023-12-14T00:35:33;97644.19;;;5.97;100.00
79709;BME280;69203;48.964;9.118;2023-12-14T00:36:33;97641.16;;;6.03;100.00
79709;BME280;69203;48.964;9.118;2023-12-14T00:37:33;97637.31;;;5.96;100.00
79709;BME280;69203;48.964;9.118;2023-12-14T00:38:34;97643.56;;;5.93;100.00
79709;BME280;69203;48.964;9.118;2023-12-14T00:39:34;97642.41;;;5.98;100.00
79709;BME280;69203;48.964;9.118;2023-12-14T00:40:34;97640.94;;;5.93;100.00
79709;BME280;69203;48.964;9.118;2023-12-14T00:41:34;97640.94;;;5.93;100.00
79709;BME280;69203;48.964;9.118;2023-12-14T00:42:35;97648.06;;;5.91;100.00
79709;BME280;69203;48.964;9.118;2023-12-14T00:43:35;97644.59;;;5.91;100.00
79709;BME280;69203;48.964;9.118;2023-12-14T00:44:36;97651.50;;;5.92;100.00
79709;BME280;69203;48.964;9.118;2023-12-14T00:45:36;97656.25;;;5.98;100.00
79709;BME280;69203;48.964;9.118;2023-12-14T00:46:36;97649.09;;;6.02;100.00
79709;BME280;69203;48.964;9.118;2023-12-14T00:47:36;97654.06;;;6.05;100.00
79709;BME280;69203;48.964;9.118;2023-12-14T00:48:37;97658.78;;;6.12;100.00
79709;BME280;69203;48.964;9.118;2023-12-14T00:49:37;97652.91;;;6.09;100.00
79709;BME280;69203;48.964;9.118;2023-12-14T00:50:37;97653.56;;;6.12;100.00
79709;BME280;69203;48.964;9.118;2023-12-14T00:51:37;97656.78;;;6.16;100.00
79709;BME280;69203;48.964;9.118;2023-12-14T00:52:38;97662.28;;;6.24;100.00
79709;BME280;69203;48.964;9.118;2023-12-14T00:53:38;97655.63;;;6.20;100.00
79709;BME280;69203;48.964;9.118;2023-12-14T00:54:38;97657.84;;;6.13;100.00
79709;BME280;69203;48.964;9.118;2023-12-14T00:55:38;97662.41;;;6.10;100.00
79709;BME280;69203;48.964;9.118;2023-12-14T00:56:39;97658.03;;;6.10;100.00
79709;BME280;69203;48.964;9.118;2023-12-14T00:57:39;97659.72;;;6.11;100.00
79709;BME280;69203;48.964;9.118;2023-12-14T00:58:39;97658.88;;;6.11;100.00
79709;BME280;69203;48.964;9.118;2023-12-14T00:59:39;97662.72;;;6.05;100.00
79709;BME280;69203;48.964;9.118;2023-12-14T01:00:41;97656.78;;;6.03;100.00
79709;BME280;69203;48.964;9.118;2023-12-14T01:01:41;97663.06;;;6.13;100.00
79709;BME280;69203;48.964;9.118;2023-12-14T01:02:41;97661.25;;;6.14;100.00
79709;BME280;69203;48.964;9.118;2023-12-14T01:03:42;97668.69;;;6.07;100.00
79709;BME280;69203;48.964;9.118;2023-12-14T01:04:42;97660.88;;;6.07;100.00
79709;BME280;69203;48.964;9.118;2023-12-14T01:05:42;97671.06;;;6.10;100.00
79709;BME280;69203;48.964;9.118;2023-12-14T01:06:42;97666.97;;;6.19;100.00
79709;BME280;69203;48.964;9.118;2023-12-14T01:07:43;97669.50;;;6.20;100.00
79709;BME280;69203;48.964;9.118;2023-12-14T01:08:43;97664.28;;;6.20;100.00
79709;BME280;69203;48.964;9.118;2023-12-14T01:09:43;97667.63;;;6.22;100.00
79709;BME280;69203;48.964;9.118;2023-12-14T01:10:44;97670.94;;;6.24;100.00
79709;BME280;69203;48.964;9.118;2023-12-14T01:11:44;97672.53;;;6.27;100.00
79709;BME280;69203;48.964;9.118;2023-12-14T01:12:44;97671.34;;;6.31;100.00
79709;BME280;69203;48.964;9.118;2023-12-14T01:13:45;97676.47;;;6.32;100.00
79709;BME280;69203;48.964;9.118;2023-12-14T01:14:45;97673.88;;;6.32;100.00
79709;BME280;69203;48.964;9.118;2023-12-14T01:15:45;97677.50;;;6.30;100.00
79709;BME280;69203;48.964;9.118;2023-12-14T01:16:45;97682.72;;;6.30;100.00
79709;BME280;69203;48.964;9.118;2023-12-14T01:17:46;97675.13;;;6.27;100.00
79709;BME280;69203;48.964;9.118;2023-12-14T01:18:46;97681.50;;;6.23;100.00
79709;BME280;69203;48.964;9.118;2023-12-14T01:19:46;97680.75;;;6.21;100.00
79709;BME280;69203;48.964;9.118;2023-12-14T01:20:46;97688.06;;;6.16;100.00
79709;BME280;69203;48.964;9.118;2023-12-14T01:21:47;97688.78;;;6.18;100.00
79709;BME280;69203;48.964;9.118;2023-12-14T01:22:47;97697.13;;;6.23;100.00
79709;BME280;69203;48.964;9.118;2023-12-14T01:23:47;97693.69;;;6.22;100.00
79709;BME280;69203;48.964;9.118;2023-12-14T01:24:49;97701.59;;;6.21;100.00
79709;BME280;69203;48.964;9.118;2023-12-14T01:25:49;97693.97;;;6.30;100.00
79709;BME280;69203;48.964;9.118;2023-12-14T01:26:49;97705.25;;;6.31;100.00
79709;BME280;69203;48.964;9.118;2023-12-14T01:27:50;97703.78;;;6.27;100.00
79709;BME280;69203;48.964;9.118;2023-12-14T01:28:50;97698.34;;;6.30;100.00
79709;BME280;69203;48.964;9.118;2023-12-14T01:29:52;97700.13;;;6.29;100.00
79709;BME280;69203;48.964;9.118;2023-12-14T01:30:53;97698.34;;;6.30;100.00
79709;BME280;69203;48.964;9.118;2023-12-14T01:31:53;97699.00;;;6.33;100.00
79709;BME280;69203;48.964;9.118;2023-12-14T01:32:53;97710.47;;;6.31;100.00
79709;BME280;69203;48.964;9.118;2023-12-14T01:33:53;97702.34;;;6.23;100.00
79709;BME280;69203;48.964;9.118;2023-12-14T01:34:54;97698.16;;;6.20;100.00
79709;BME280;69203;48.964;9.118;2023-12-14T01:35:54;97700.06;;;6.18;100.00
79709;BME280;69203;48.964;9.118;2023-12-14T01:36:54;97695.88;;;6.16;100.00
79709;BME280;69203;48.964;9.118;2023-12-14T01:37:54;97703.78;;;6.14;100.00
79709;BME280;69203;48.964;9.118;2023-12-14T01:38:55;97692.31;;;6.17;100.00
79709;BME280;69203;48.964;9.118;2023-12-14T01:39:56;97700.34;;;6.14;100.00
79709;BME280;69203;48.964;9.118;2023-12-14T01:40:56;97697.94;;;6.11;100.00
79709;BME280;69203;48.964;9.118;2023-12-14T01:41:59;97704.63;;;6.15;100.00
79709;BME280;69203;48.964;9.118;2023-12-14T01:43:09;97707.53;;;6.10;100.00
79709;BME280;69203;48.964;9.118;2023-12-14T01:44:12;97705.25;;;6.06;100.00
79709;BME280;69203;48.964;9.118;2023-12-14T01:45:14;97706.28;;;6.03;100.00
79709;BME280;69203;48.964;9.118;2023-12-14T01:46:18;97710.69;;;6.03;100.00
79709;BME280;69203;48.964;9.118;2023-12-14T01:47:18;97707.34;;;6.13;100.00
79709;BME280;69203;48.964;9.118;2023-12-14T01:48:18;97714.19;;;6.14;100.00
79709;BME280;69203;48.964;9.118;2023-12-14T01:49:19;97713.69;;;6.09;100.00
79709;BME280;69203;48.964;9.118;2023-12-14T01:50:19;97714.34;;;6.13;100.00
79709;BME280;69203;48.964;9.118;2023-12-14T01:51:19;97717.47;;;6.18;100.00
79709;BME280;69203;48.964;9.118;2023-12-14T01:52:20;97721.00;;;6.17;100.00
79709;BME280;69203;48.964;9.118;2023-12-14T01:53:20;97729.53;;;6.19;100.00
79709;BME280;69203;48.964;9.118;2023-12-14T01:54:20;97720.75;;;6.45;100.00
79709;BME280;69203;48.964;9.118;2023-12-14T01:55:20;97721.41;;;6.36;100.00
79709;BME280;69203;48.964;9.118;2023-12-14T01:56:21;97719.84;;;6.33;100.00
79709;BME280;69203;48.964;9.118;2023-12-14T01:57:21;97728.69;;;6.31;100.00
79709;BME280;69203;48.964;9.118;2023-12-14T01:58:26;97727.34;;;6.25;100.00
79709;BME280;69203;48.964;9.118;2023-12-14T01:59:26;97732.56;;;6.25;100.00
79709;BME280;69203;48.964;9.118;2023-12-14T02:00:36;97725.16;;;6.32;100.00
79709;BME280;69203;48.964;9.118;2023-12-14T02:01:41;97731.53;;;6.28;100.00
79709;BME280;69203;48.964;9.118;2023-12-14T02:02:41;97724.31;;;6.19;100.00
79709;BME280;69203;48.964;9.118;2023-12-14T02:03:48;97729.44;;;6.20;100.00
79709;BME280;69203;48.964;9.118;2023-12-14T02:04:49;97733.72;;;6.21;100.00
79709;BME280;69203;48.964;9.118;2023-12-14T02:05:49;97729.00;;;6.14;100.00
79709;BME280;69203;48.964;9.118;2023-12-14T02:06:49;97731.81;;;6.11;100.00
79709;BME280;69203;48.964;9.118;2023-12-14T02:07:50;97721.41;;;6.11;100.00
79709;BME280;69203;48.964;9.118;2023-12-14T02:08:50;97737.88;;;6.11;100.00
79709;BME280;69203;48.964;9.118;2023-12-14T02:09:50;97732.75;;;6.10;100.00
79709;BME280;69203;48.964;9.118;2023-12-14T02:10:51;97731.00;;;6.10;100.00
79709;BME280;69203;48.964;9.118;2023-12-14T02:11:51;97725.78;;;6.10;100.00
79709;BME280;69203;48.964;9.118;2023-12-14T02:12:51;97730.25;;;6.08;100.00
79709;BME280;69203;48.964;9.118;2023-12-14T02:13:51;97734.66;;;6.08;100.00
79709;BME280;69203;48.964;9.118;2023-12-14T02:14:51;97733.91;;;6.06;100.00
79709;BME280;69203;48.964;9.118;2023-12-14T02:15:52;97730.25;;;6.08;100.00
79709;BME280;69203;48.964;9.118;2023-12-14T02:16:53;97738.72;;;6.12;100.00
79709;BME280;69203;48.964;9.118;2023-12-14T02:17:53;97730.56;;;6.16;100.00
79709;BME280;69203;48.964;9.118;2023-12-14T02:18:54;97732.03;;;6.20;100.00
79709;BME280;69203;48.964;9.118;2023-12-14T02:19:54;97738.50;;;6.15;100.00
79709;BME280;69203;48.964;9.118;2023-12-14T02:20:54;97735.25;;;6.11;100.00
79709;BME280;69203;48.964;9.118;2023-12-14T02:21:55;97737.34;;;6.06;100.00
79709;BME280;69203;48.964;9.118;2023-12-14T02:22:55;97738.38;;;6.04;100.00
79709;BME280;69203;48.964;9.118;2023-12-14T02:23:55;97733.56;;;5.98;100.00
79709;BME280;69203;48.964;9.118;2023-12-14T02:24:56;97738.91;;;5.96;100.00
79709;BME280;69203;48.964;9.118;2023-12-14T02:25:56;97747.66;;;5.95;100.00
79709;BME280;69203;48.964;9.118;2023-12-14T02:26:56;97746.72;;;5.96;100.00
79709;BME280;69203;48.964;9.118;2023-12-14T02:27:57;97750.25;;;5.95;100.00
79709;BME280;69203;48.964;9.118;2023-12-14T02:28:57;97746.91;;;5.93;100.00
79709;BME280;69203;48.964;9.118;2023-12-14T02:29:58;97747.88;;;5.92;100.00
79709;BME280;69203;48.964;9.118;2023-12-14T02:30:58;97745.34;;;5.90;100.00
79709;BME280;69203;48.964;9.118;2023-12-14T02:31:58;97747.22;;;5.88;100.00
79709;BME280;69203;48.964;9.118;2023-12-14T02:32:58;97751.28;;;5.92;100.00
79709;BME280;69203;48.964;9.118;2023-12-14T02:33:58;97759.53;;;5.99;100.00
79709;BME280;69203;48.964;9.118;2023-12-14T02:34:59;97758.28;;;6.05;100.00
79709;BME280;69203;48.964;9.118;2023-12-14T02:35:59;97750.03;;;5.98;100.00
79709;BME280;69203;48.964;9.118;2023-12-14T02:37:00;97756.22;;;5.97;100.00
79709;BME280;69203;48.964;9.118;2023-12-14T02:38:00;97750.88;;;5.99;100.00
79709;BME280;69203;48.964;9.118;2023-12-14T02:39:00;97750.69;;;6.02;100.00
79709;BME280;69203;48.964;9.118;2023-12-14T02:40:01;97755.28;;;6.11;100.00
79709;BME280;69203;48.964;9.118;2023-12-14T02:41:01;97758.19;;;6.19;100.00
79709;BME280;69203;48.964;9.118;2023-12-14T02:42:01;97759.25;;;6.16;100.00
79709;BME280;69203;48.964;9.118;2023-12-14T02:43:01;97760.69;;;6.20;100.00
79709;BME280;69203;48.964;9.118;2023-12-14T02:44:01;97756.75;;;6.27;100.00
79709;BME280;69203;48.964;9.118;2023-12-14T02:45:03;97768.94;;;6.27;100.00
79709;BME280;69203;48.964;9.118;2023-12-14T02:46:03;97761.75;;;6.18;100.00
79709;BME280;69203;48.964;9.118;2023-12-14T02:47:04;97765.91;;;6.20;100.00
79709;BME280;69203;48.964;9.118;2023-12-14T02:48:04;97766.31;;;6.14;100.00
79709;BME280;69203;48.964;9.118;2023-12-14T02:49:07;97767.16;;;6.15;100.00
79709;BME280;69203;48.964;9.118;2023-12-14T02:50:07;97765.72;;;6.23;100.00
79709;BME280;69203;48.964;9.118;2023-12-14T02:51:11;97775.00;;;6.27;100.00
79709;BME280;69203;48.964;9.118;2023-12-14T02:52:12;97771.47;;;6.28;100.00
79709;BME280;69203;48.964;9.118;2023-12-14T02:53:13;97764.22;;;6.19;100.00
79709;BME280;69203;48.964;9.118;2023-12-14T02:54:13;97766.53;;;6.11;100.00
79709;BME280;69203;48.964;9.118;2023-12-14T02:55:14;97763.19;;;6.09;100.00
79709;BME280;69203;48.964;9.118;2023-12-14T02:56:14;97763.50;;;6.05;100.00
79709;BME280;69203;48.964;9.118;2023-12-14T02:57:14;97750.88;;;5.99;100.00
79709;BME280;69203;48.964;9.118;2023-12-14T02:58:14;97762.16;;;6.12;100.00
79709;BME280;69203;48.964;9.118;2023-12-14T02:59:15;97767.91;;;6.17;100.00
79709;BME280;69203;48.964;9.118;2023-12-14T03:00:15;97760.38;;;6.12;100.00
79709;BME280;69203;48.964;9.118;2023-12-14T03:01:19;97768.81;;;6.16;100.00
79709;BME280;69203;48.964;9.118;2023-12-14T03:02:21;97768.81;;;6.16;100.00
79709;BME280;69203;48.964;9.118;2023-12-14T03:03:21;97774.78;;;6.18;100.00
79709;BME280;69203;48.964;9.118;2023-12-14T03:04:22;97772.50;;;6.13;100.00
79709;BME280;69203;48.964;9.118;2023-12-14T03:05:22;97769.88;;;6.13;100.00
79709;BME280;69203;48.964;9.118;2023-12-14T03:06:22;97775.19;;;6.24;100.00
79709;BME280;69203;48.964;9.118;2023-12-14T03:07:22;97777.78;;;6.24;100.00
79709;BME280;69203;48.964;9.118;2023-12-14T03:08:29;97778.75;;;6.23;100.00
79709;BME280;69203;48.964;9.118;2023-12-14T03:09:29;97778.00;;;6.21;100.00
79709;BME280;69203;48.964;9.118;2023-12-14T03:10:29;97784.69;;;6.25;100.00
79709;BME280;69203;48.964;9.118;2023-12-14T03:11:30;97789.19;;;6.23;100.00
79709;BME280;69203;48.964;9.118;2023-12-14T03:12:30;97787.06;;;6.16;100.00
79709;BME280;69203;48.964;9.118;2023-12-14T03:13:30;97790.41;;;6.18;100.00
79709;BME280;69203;48.964;9.118;2023-12-14T03:14:31;97789.47;;;6.19;100.00
79709;BME280;69203;48.964;9.118;2023-12-14T03:15:32;97787.06;;;6.16;100.00
79709;BME280;69203;48.964;9.118;2023-12-14T03:16:32;97790.72;;;6.13;100.00
79709;BME280;69203;48.964;9.118;2023-12-14T03:17:32;97793.13;;;6.16;100.00
79709;BME280;69203;48.964;9.118;2023-12-14T03:18:33;97793.13;;;6.16;100.00
79709;BME280;69203;48.964;9.118;2023-12-14T03:19:33;97796.88;;;6.12;100.00
79709;BME280;69203;48.964;9.118;2023-12-14T03:20:33;97799.34;;;6.14;100.00
79709;BME280;69203;48.964;9.118;2023-12-14T03:21:33;97796.03;;;6.12;100.00
79709;BME280;69203;48.964;9.118;2023-12-14T03:22:34;97798.41;;;6.15;100.00
79709;BME280;69203;48.964;9.118;2023-12-14T03:23:34;97802.59;;;6.17;100.00
79709;BME280;69203;48.964;9.118;2023-12-14T03:24:35;97798.28;;;6.04;100.00
79709;BME280;69203;48.964;9.118;2023-12-14T03:25:35;97802.97;;;5.99;100.00
79709;BME280;69203;48.964;9.118;2023-12-14T03:26:36;97806.63;;;5.96;100.00
79709;BME280;69203;48.964;9.118;2023-12-14T03:27:36;97804.41;;;5.90;100.00
79709;BME280;69203;48.964;9.118;2023-12-14T03:28:37;97806.09;;;5.91;100.00
79709;BME280;69203;48.964;9.118;2023-12-14T03:29:38;97808.56;;;5.92;100.00
79709;BME280;69203;48.964;9.118;2023-12-14T03:30:38;97814.22;;;5.99;100.00
79709;BME280;69203;48.964;9.118;2023-12-14T03:31:38;97810.91;;;5.97;100.00
79709;BME280;69203;48.964;9.118;2023-12-14T03:32:39;97816.94;;;5.98;100.00
79709;BME280;69203;48.964;9.118;2023-12-14T03:33:40;97813.16;;;5.89;100.00
79709;BME280;69203;48.964;9.118;2023-12-14T03:34:40;97814.84;;;5.90;100.00
79709;BME280;69203;48.964;9.118;2023-12-14T03:35:42;97816.78;;;5.86;100.00
79709;BME280;69203;48.964;9.118;2023-12-14T03:36:43;97820.88;;;5.90;100.00
79709;BME280;69203;48.964;9.118;2023-12-14T03:37:43;97824.03;;;5.96;100.00
79709;BME280;69203;48.964;9.118;2023-12-14T03:38:44;97829.31;;;5.94;100.00
79709;BME280;69203;48.964;9.118;2023-12-14T03:39:44;97830.16;;;5.94;100.00
79709;BME280;69203;48.964;9.118;2023-12-14T03:40:44;97835.28;;;5.96;100.00
79709;BME280;69203;48.964;9.118;2023-12-14T03:41:44;97835.47;;;5.93;100.00
79709;BME280;69203;48.964;9.118;2023-12-14T03:42:45;97828.59;;;5.92;100.00
79709;BME280;69203;48.964;9.118;2023-12-14T03:43:45;97842.16;;;5.97;100.00
79709;BME280;69203;48.964;9.118;2023-12-14T03:44:46;97837.97;;;5.94;100.00
79709;BME280;69203;48.964;9.118;2023-12-14T03:45:46;97837.22;;;5.92;100.00
79709;BME280;69203;48.964;9.118;2023-12-14T03:46:46;97847.56;;;5.94;100.00
79709;BME280;69203;48.964;9.118;2023-12-14T03:47:47;97844.78;;;5.97;100.00
79709;BME280;69203;48.964;9.118;2023-12-14T03:48:47;97845.31;;;6.02;100.00
79709;BME280;69203;48.964;9.118;2023-12-14T03:49:47;97855.19;;;5.97;100.00
79709;BME280;69203;48.964;9.118;2023-12-14T03:50:49;97856.44;;;5.91;100.00
79709;BME280;69203;48.964;9.118;2023-12-14T03:51:49;97851.94;;;5.93;100.00
79709;BME280;69203;48.964;9.118;2023-12-14T03:52:49;97857.97;;;5.94;100.00
79709;BME280;69203;48.964;9.118;2023-12-14T03:53:50;97857.25;;;5.92;100.00
79709;BME280;69203;48.964;9.118;2023-12-14T03:54:50;97864.03;;;5.94;100.00
79709;BME280;69203;48.964;9.118;2023-12-14T03:55:50;97865.88;;;5.92;100.00
79709;BME280;69203;48.964;9.118;2023-12-14T03:56:50;97876.75;;;5.99;100.00
79709;BME280;69203;48.964;9.118;2023-12-14T03:57:51;97872.28;;;6.01;100.00
79709;BME280;69203;48.964;9.118;2023-12-14T03:58:51;97873.00;;;6.03;100.00
79709;BME280;69203;48.964;9.118;2023-12-14T03:59:52;97876.81;;;6.12;100.00
79709;BME280;69203;48.964;9.118;2023-12-14T04:00:52;97881.63;;;6.18;100.00
79709;BME280;69203;48.964;9.118;2023-12-14T04:01:52;97878.28;;;6.16;100.00
79709;BME280;69203;48.964;9.118;2023-12-14T04:02:53;97886.53;;;6.22;100.00
79709;BME280;69203;48.964;9.118;2023-12-14T04:03:53;97882.25;;;6.21;100.00
79709;BME280;69203;48.964;9.118;2023-12-14T04:04:54;97881.31;;;6.22;100.00
79709;BME280;69203;48.964;9.118;2023-12-14T04:05:54;97887.66;;;6.18;100.00
79709;BME280;69203;48.964;9.118;2023-12-14T04:06:54;97891.00;;;6.20;100.00
79709;BME280;69203;48.964;9.118;2023-12-14T04:07:54;97894.28;;;6.10;100.00
79709;BME280;69203;48.964;9.118;2023-12-14T04:08:54;97898.13;;;6.04;100.00
79709;BME280;69203;48.964;9.118;2023-12-14T04:09:55;97896.28;;;6.06;100.00
79709;BME280;69203;48.964;9.118;2023-12-14T04:10:55;97902.94;;;6.10;100.00
79709;BME280;69203;48.964;9.118;2023-12-14T04:11:55;97905.84;;;6.06;100.00
79709;BME280;69203;48.964;9.118;2023-12-14T04:12:56;97905.56;;;6.10;100.00
79709;BME280;69203;48.964;9.118;2023-12-14T04:13:58;97910.59;;;6.13;100.00
79709;BME280;69203;48.964;9.118;2023-12-14T04:14:58;97911.84;;;6.20;100.00
79709;BME280;69203;48.964;9.118;2023-12-14T04:15:58;97915.81;;;6.26;100.00
79709;BME280;69203;48.964;9.118;2023-12-14T04:16:58;97914.97;;;6.25;100.00
79709;BME280;69203;48.964;9.118;2023-12-14T04:17:59;97911.94;;;6.19;100.00
79709;BME280;69203;48.964;9.118;2023-12-14T04:18:59;97914.53;;;6.19;100.00
79709;BME280;69203;48.964;9.118;2023-12-14T04:19:59;97918.34;;;6.27;100.00
79709;BME280;69203;48.964;9.118;2023-12-14T04:21:00;97920.00;;;6.28;100.00
79709;BME280;69203;48.964;9.118;2023-12-14T04:22:00;97926.63;;;6.20;100.00
79709;BME280;69203;48.964;9.118;2023-12-14T04:23:00;97925.47;;;6.11;100.00
79709;BME280;69203;48.964;9.118;2023-12-14T04:24:00;97925.47;;;6.11;100.00
79709;BME280;69203;48.964;9.118;2023-12-14T04:25:01;97918.41;;;6.13;100.00
79709;BME280;69203;48.964;9.118;2023-12-14T04:26:01;97921.72;;;6.15;100.00
79709;BME280;69203;48.964;9.118;2023-12-14T04:27:01;97930.38;;;6.16;100.00
79709;BME280;69203;48.964;9.118;2023-12-14T04:28:01;97908.25;;;6.09;100.00
79709;BME280;69203;48.964;9.118;2023-12-14T04:29:02;97927.47;;;6.20;100.00
79709;BME280;69203;48.964;9.118;2023-12-14T04:30:02;97930.91;;;6.21;100.00
79709;BME280;69203;48.964;9.118;2023-12-14T04:31:04;97935.38;;;6.19;100.00
79709;BME280;69203;48.964;9.118;2023-12-14T04:32:05;97930.69;;;6.11;100.00
79709;BME280;69203;48.964;9.118;2023-12-14T04:33:05;97930.59;;;6.13;100.00
79709;BME280;69203;48.964;9.118;2023-12-14T04:34:05;97938.59;;;6.10;100.00
79709;BME280;69203;48.964;9.118;2023-12-14T04:35:12;97942.66;;;6.14;100.00
79709;BME280;69203;48.964;9.118;2023-12-14T04:36:12;97946.94;;;6.15;100.00
79709;BME280;69203;48.964;9.118;2023-12-14T04:37:12;97943.19;;;6.19;100.00
79709;BME280;69203;48.964;9.118;2023-12-14T04:38:12;97942.19;;;6.21;100.00
79709;BME280;69203;48.964;9.118;2023-12-14T04:39:13;97947.09;;;6.26;100.00
79709;BME280;69203;48.964;9.118;2023-12-14T04:40:13;97944.50;;;6.26;100.00
79709;BME280;69203;48.964;9.118;2023-12-14T04:41:14;97951.38;;;6.27;100.00
79709;BME280;69203;48.964;9.118;2023-12-14T04:42:14;97954.81;;;6.27;100.00
79709;BME280;69203;48.964;9.118;2023-12-14T04:43:14;97960.13;;;6.26;100.00
79709;BME280;69203;48.964;9.118;2023-12-14T04:44:15;97956.50;;;6.28;100.00
79709;BME280;69203;48.964;9.118;2023-12-14T04:45:15;97957.03;;;6.33;100.00
79709;BME280;69203;48.964;9.118;2023-12-14T04:46:16;97972.38;;;6.38;100.00
79709;BME280;69203;48.964;9.118;2023-12-14T04:47:16;97961.13;;;6.38;100.00
79709;BME280;69203;48.964;9.118;2023-12-14T04:48:17;97964.88;;;6.33;100.00
79709;BME280;69203;48.964;9.118;2023-12-14T04:49:18;97971.09;;;6.31;100.00
79709;BME280;69203;48.964;9.118;2023-12-14T04:50:19;97960.22;;;6.24;100.00
79709;BME280;69203;48.964;9.118;2023-12-14T04:51:20;97958.50;;;6.11;100.00
79709;BME280;69203;48.964;9.118;2023-12-14T04:52:20;97957.88;;;6.07;100.00
79709;BME280;69203;48.964;9.118;2023-12-14T04:53:21;97968.47;;;6.04;100.00
79709;BME280;69203;48.964;9.118;2023-12-14T04:54:21;97967.94;;;5.99;100.00
79709;BME280;69203;48.964;9.118;2023-12-14T04:55:21;97973.06;;;6.01;100.00
79709;BME280;69203;48.964;9.118;2023-12-14T04:56:21;97967.94;;;5.99;100.00
79709;BME280;69203;48.964;9.118;2023-12-14T04:57:22;97971.66;;;5.95;100.00
79709;BME280;69203;48.964;9.118;2023-12-14T04:58:22;97983.47;;;6.01;100.00
79709;BME280;69203;48.964;9.118;2023-12-14T04:59:23;97977.44;;;6.00;100.00
79709;BME280;69203;48.964;9.118;2023-12-14T05:00:23;97982.25;;;6.06;100.00
79709;BME280;69203;48.964;9.118;2023-12-14T05:01:23;97983.81;;;6.09;100.00
79709;BME280;69203;48.964;9.118;2023-12-14T05:02:23;97990.06;;;6.06;100.00
79709;BME280;69203;48.964;9.118;2023-12-14T05:03:25;97985.56;;;6.08;100.00
79709;BME280;69203;48.964;9.118;2023-12-14T05:04:26;97984.78;;;6.08;100.00
79709;BME280;69203;48.964;9.118;2023-12-14T05:05:26;97998.53;;;6.10;100.00
79709;BME280;69203;48.964;9.118;2023-12-14T05:06:27;98002.72;;;6.12;100.00
79709;BME280;69203;48.964;9.118;2023-12-14T05:07:27;97994.91;;;6.12;100.00
79709;BME280;69203;48.964;9.118;2023-12-14T05:08:28;98005.94;;;6.16;100.00
79709;BME280;69203;48.964;9.118;2023-12-14T05:09:29;98008.34;;;6.19;100.00
79709;BME280;69203;48.964;9.118;2023-12-14T05:10:29;98014.03;;;6.25;100.00
79709;BME280;69203;48.964;9.118;2023-12-14T05:11:29;98018.41;;;6.25;100.00
79709;BME280;69203;48.964;9.118;2023-12-14T05:12:29;98015.69;;;6.26;100.00
79709;BME280;69203;48.964;9.118;2023-12-14T05:13:31;98016.34;;;6.30;100.00
79709;BME280;69203;48.964;9.118;2023-12-14T05:14:31;98023.22;;;6.31;100.00
79709;BME280;69203;48.964;9.118;2023-12-14T05:15:33;98022.22;;;6.33;100.00
79709;BME280;69203;48.964;9.118;2023-12-14T05:16:33;98023.03;;;6.34;100.00
79709;BME280;69203;48.964;9.118;2023-12-14T05:17:34;98026.66;;;6.31;100.00
79709;BME280;69203;48.964;9.118;2023-12-14T05:18:36;98025.66;;;6.34;100.00
79709;BME280;69203;48.964;9.118;2023-12-14T05:19:36;98027.41;;;6.33;100.00
79709;BME280;69203;48.964;9.118;2023-12-14T05:20:37;98034.00;;;6.39;100.00